sensor_id;sensor_type;location;lat;lon;timestamp;temperature;humidity
55331;DHT22;58851;42.984;20.336;2024-02-26T00:00:05;205.20;153.60
55331;DHT22;58851;42.984;20.336;2024-02-26T00:02:38;205.10;6502.40
55331;DHT22;58851;42.984;20.336;2024-02-26T00:05:06;204.80;6502.40
55331;DHT22;58851;42.984;20.336;2024-02-26T00:07:32;204.90;6502.40
55331;DHT22;58851;42.984;20.336;2024-02-26T00:09:58;205.10;6502.40
55331;DHT22;58851;42.984;20.336;2024-02-26T00:12:24;205.10;6502.40
55331;DHT22;58851;42.984;20.336;2024-02-26T00:14:49;205.20;128.00
55331;DHT22;58851;42.984;20.336;2024-02-26T00:17:15;205.10;6502.40
55331;DHT22;58851;42.984;20.336;2024-02-26T00:19:41;205.20;128.00
55331;DHT22;58851;42.984;20.336;2024-02-26T00:22:07;205.20;128.00
55331;DHT22;58851;42.984;20.336;2024-02-26T00:24:33;205.20;6502.40
55331;DHT22;58851;42.984;20.336;2024-02-26T00:26:59;205.20;153.60
55331;DHT22;58851;42.984;20.336;2024-02-26T00:29:25;205.20;6502.40
55331;DHT22;58851;42.984;20.336;2024-02-26T00:31:51;205.20;6502.40
55331;DHT22;58851;42.984;20.336;2024-02-26T00:34:17;205.20;6502.40
55331;DHT22;58851;42.984;20.336;2024-02-26T00:36:43;205.20;6502.40
55331;DHT22;58851;42.984;20.336;2024-02-26T00:39:08;205.30;6502.40
55331;DHT22;58851;42.984;20.336;2024-02-26T00:41:39;205.30;6502.40
55331;DHT22;58851;42.984;20.336;2024-02-26T00:44:05;205.30;230.40
55331;DHT22;58851;42.984;20.336;2024-02-26T00:46:31;205.30;179.20
55331;DHT22;58851;42.984;20.336;2024-02-26T00:48:56;205.30;153.60
55331;DHT22;58851;42.984;20.336;2024-02-26T00:51:22;205.20;179.20
55331;DHT22;58851;42.984;20.336;2024-02-26T00:53:48;205.20;204.80
55331;DHT22;58851;42.984;20.336;2024-02-26T00:56:14;205.20;128.00
55331;DHT22;58851;42.984;20.336;2024-02-26T00:58:40;205.10;6528.00
55331;DHT22;58851;42.984;20.336;2024-02-26T01:01:05;205.10;6502.40
55331;DHT22;58851;42.984;20.336;2024-02-26T01:03:31;205.10;6502.40
55331;DHT22;58851;42.984;20.336;2024-02-26T01:05:57;205.00;6502.40
55331;DHT22;58851;42.984;20.336;2024-02-26T01:08:23;204.90;6502.40
55331;DHT22;58851;42.984;20.336;2024-02-26T01:10:48;205.00;6502.40
55331;DHT22;58851;42.984;20.336;2024-02-26T01:13:14;205.00;6502.40
55331;DHT22;58851;42.984;20.336;2024-02-26T01:15:40;204.90;6502.40
55331;DHT22;58851;42.984;20.336;2024-02-26T01:18:06;205.00;6502.40
55331;DHT22;58851;42.984;20.336;2024-02-26T01:20:31;205.00;6502.40
55331;DHT22;58851;42.984;20.336;2024-02-26T01:22:57;204.90;6502.40
55331;DHT22;58851;42.984;20.336;2024-02-26T01:25:23;204.80;6502.40
55331;DHT22;58851;42.984;20.336;2024-02-26T01:27:49;204.80;6502.40
55331;DHT22;58851;42.984;20.336;2024-02-26T01:30:14;204.80;6502.40
55331;DHT22;58851;42.984;20.336;2024-02-26T01:32:42;204.80;6502.40
55331;DHT22;58851;42.984;20.336;2024-02-26T01:35:08;204.80;6502.40
55331;DHT22;58851;42.984;20.336;2024-02-26T01:37:36;180.10;6502.40
55331;DHT22;58851;42.984;20.336;2024-02-26T01:40:02;180.10;6502.40
55331;DHT22;58851;42.984;20.336;2024-02-26T01:42:32;180.00;6502.40
55331;DHT22;58851;42.984;20.336;2024-02-26T01:44:59;180.00;6502.40
55331;DHT22;58851;42.984;20.336;2024-02-26T01:47:25;179.90;6502.40
55331;DHT22;58851;42.984;20.336;2024-02-26T01:49:52;180.00;6502.40
55331;DHT22;58851;42.984;20.336;2024-02-26T01:52:18;179.90;6502.40
55331;DHT22;58851;42.984;20.336;2024-02-26T01:54:45;179.90;6502.40
55331;DHT22;58851;42.984;20.336;2024-02-26T01:57:12;179.80;6502.40
55331;DHT22;58851;42.984;20.336;2024-02-26T01:59:40;179.80;6502.40
55331;DHT22;58851;42.984;20.336;2024-02-26T02:02:08;179.80;6502.40
55331;DHT22;58851;42.984;20.336;2024-02-26T02:04:36;179.80;6502.40
55331;DHT22;58851;42.984;20.336;2024-02-26T02:07:02;179.80;6502.40
55331;DHT22;58851;42.984;20.336;2024-02-26T02:09:29;179.70;6502.40
55331;DHT22;58851;42.984;20.336;2024-02-26T02:11:55;179.80;6502.40
55331;DHT22;58851;42.984;20.336;2024-02-26T02:14:21;179.70;6502.40
55331;DHT22;58851;42.984;20.336;2024-02-26T02:16:47;179.80;6502.40
55331;DHT22;58851;42.984;20.336;2024-02-26T02:19:14;179.80;6502.40
55331;DHT22;58851;42.984;20.336;2024-02-26T02:21:39;179.70;6502.40
55331;DHT22;58851;42.984;20.336;2024-02-26T02:24:05;179.70;6502.40
55331;DHT22;58851;42.984;20.336;2024-02-26T02:26:31;179.80;6502.40
55331;DHT22;58851;42.984;20.336;2024-02-26T02:28:58;179.70;6502.40
55331;DHT22;58851;42.984;20.336;2024-02-26T02:31:24;179.70;6502.40
55331;DHT22;58851;42.984;20.336;2024-02-26T02:33:50;179.70;6502.40
55331;DHT22;58851;42.984;20.336;2024-02-26T02:36:16;179.70;6502.40
55331;DHT22;58851;42.984;20.336;2024-02-26T02:38:51;179.70;6502.40
55331;DHT22;58851;42.984;20.336;2024-02-26T02:41:17;179.70;6502.40
55331;DHT22;58851;42.984;20.336;2024-02-26T02:43:43;179.70;6502.40
55331;DHT22;58851;42.984;20.336;2024-02-26T02:46:09;179.70;6502.40
55331;DHT22;58851;42.984;20.336;2024-02-26T02:48:37;179.70;6502.40
55331;DHT22;58851;42.984;20.336;2024-02-26T02:51:03;179.60;6502.40
55331;DHT22;58851;42.984;20.336;2024-02-26T02:53:29;179.60;6502.40
55331;DHT22;58851;42.984;20.336;2024-02-26T02:55:56;179.60;6502.40
55331;DHT22;58851;42.984;20.336;2024-02-26T02:58:22;179.60;6502.40
55331;DHT22;58851;42.984;20.336;2024-02-26T03:00:48;179.50;6502.40
55331;DHT22;58851;42.984;20.336;2024-02-26T03:03:14;179.50;6502.40
55331;DHT22;58851;42.984;20.336;2024-02-26T03:05:39;179.50;6502.40
55331;DHT22;58851;42.984;20.336;2024-02-26T03:08:05;179.50;6502.40
55331;DHT22;58851;42.984;20.336;2024-02-26T03:10:31;179.60;6502.40
55331;DHT22;58851;42.984;20.336;2024-02-26T03:12:57;179.60;6502.40
55331;DHT22;58851;42.984;20.336;2024-02-26T03:15:23;179.50;6502.40
55331;DHT22;58851;42.984;20.336;2024-02-26T03:17:48;179.50;6502.40
55331;DHT22;58851;42.984;20.336;2024-02-26T03:20:14;179.50;6502.40
55331;DHT22;58851;42.984;20.336;2024-02-26T03:22:40;179.50;6502.40
55331;DHT22;58851;42.984;20.336;2024-02-26T03:25:06;179.50;6502.40
55331;DHT22;58851;42.984;20.336;2024-02-26T03:27:32;179.60;6502.40
55331;DHT22;58851;42.984;20.336;2024-02-26T03:29:58;179.50;6502.40
55331;DHT22;58851;42.984;20.336;2024-02-26T03:32:24;179.40;6502.40
55331;DHT22;58851;42.984;20.336;2024-02-26T03:34:50;179.30;6502.40
55331;DHT22;58851;42.984;20.336;2024-02-26T03:37:19;179.30;6502.40
55331;DHT22;58851;42.984;20.336;2024-02-26T03:39:45;179.20;6502.40
55331;DHT22;58851;42.984;20.336;2024-02-26T03:42:11;154.40;6502.40
55331;DHT22;58851;42.984;20.336;2024-02-26T03:44:37;154.40;6502.40
55331;DHT22;58851;42.984;20.336;2024-02-26T03:47:02;154.40;6502.40
55331;DHT22;58851;42.984;20.336;2024-02-26T03:49:28;154.40;6502.40
55331;DHT22;58851;42.984;20.336;2024-02-26T03:51:54;154.50;6502.40
55331;DHT22;58851;42.984;20.336;2024-02-26T03:54:20;154.50;6502.40
55331;DHT22;58851;42.984;20.336;2024-02-26T03:56:46;179.20;6502.40
55331;DHT22;58851;42.984;20.336;2024-02-26T03:59:11;179.30;6502.40
55331;DHT22;58851;42.984;20.336;2024-02-26T04:01:37;179.40;6502.40
55331;DHT22;58851;42.984;20.336;2024-02-26T04:04:03;179.30;6502.40
55331;DHT22;58851;42.984;20.336;2024-02-26T04:06:29;179.40;6502.40
55331;DHT22;58851;42.984;20.336;2024-02-26T04:08:55;179.50;6502.40
55331;DHT22;58851;42.984;20.336;2024-02-26T04:11:21;179.60;6502.40
55331;DHT22;58851;42.984;20.336;2024-02-26T04:13:47;179.70;6502.40
55331;DHT22;58851;42.984;20.336;2024-02-26T04:16:15;179.80;6502.40
55331;DHT22;58851;42.984;20.336;2024-02-26T04:18:42;179.80;6502.40
55331;DHT22;58851;42.984;20.336;2024-02-26T04:21:08;179.80;6502.40
55331;DHT22;58851;42.984;20.336;2024-02-26T04:23:34;179.80;6502.40
55331;DHT22;58851;42.984;20.336;2024-02-26T04:25:59;179.90;6502.40
55331;DHT22;58851;42.984;20.336;2024-02-26T04:28:25;179.90;6502.40
55331;DHT22;58851;42.984;20.336;2024-02-26T04:30:54;179.90;6502.40
55331;DHT22;58851;42.984;20.336;2024-02-26T04:33:20;179.90;6502.40
55331;DHT22;58851;42.984;20.336;2024-02-26T04:35:46;179.80;6502.40
55331;DHT22;58851;42.984;20.336;2024-02-26T04:38:11;179.80;6502.40
55331;DHT22;58851;42.984;20.336;2024-02-26T04:40:37;179.80;6502.40
55331;DHT22;58851;42.984;20.336;2024-02-26T04:43:03;179.90;6502.40
55331;DHT22;58851;42.984;20.336;2024-02-26T04:45:29;179.90;6502.40
55331;DHT22;58851;42.984;20.336;2024-02-26T04:47:55;179.90;6502.40
55331;DHT22;58851;42.984;20.336;2024-02-26T04:50:20;179.90;6502.40
55331;DHT22;58851;42.984;20.336;2024-02-26T04:52:46;180.00;6502.40
55331;DHT22;58851;42.984;20.336;2024-02-26T04:55:12;180.00;6502.40
55331;DHT22;58851;42.984;20.336;2024-02-26T04:57:38;180.10;6502.40
55331;DHT22;58851;42.984;20.336;2024-02-26T05:00:04;180.10;6502.40
55331;DHT22;58851;42.984;20.336;2024-02-26T05:02:30;204.80;6502.40
55331;DHT22;58851;42.984;20.336;2024-02-26T05:04:58;180.10;6502.40
55331;DHT22;58851;42.984;20.336;2024-02-26T05:07:24;204.80;6502.40
55331;DHT22;58851;42.984;20.336;2024-02-26T05:09:50;204.80;6502.40
55331;DHT22;58851;42.984;20.336;2024-02-26T05:12:16;180.10;6502.40
55331;DHT22;58851;42.984;20.336;2024-02-26T05:14:42;180.10;6502.40
55331;DHT22;58851;42.984;20.336;2024-02-26T05:17:08;179.90;6502.40
55331;DHT22;58851;42.984;20.336;2024-02-26T05:19:34;180.00;6502.40
55331;DHT22;58851;42.984;20.336;2024-02-26T05:22:00;180.00;6502.40
55331;DHT22;58851;42.984;20.336;2024-02-26T05:24:25;180.00;6502.40
55331;DHT22;58851;42.984;20.336;2024-02-26T05:26:51;180.00;6502.40
55331;DHT22;58851;42.984;20.336;2024-02-26T05:29:17;180.00;6502.40
55331;DHT22;58851;42.984;20.336;2024-02-26T05:31:44;179.90;6502.40
55331;DHT22;58851;42.984;20.336;2024-02-26T05:34:11;179.80;6502.40
55331;DHT22;58851;42.984;20.336;2024-02-26T05:36:47;179.80;6502.40
55331;DHT22;58851;42.984;20.336;2024-02-26T05:39:13;179.90;6502.40
55331;DHT22;58851;42.984;20.336;2024-02-26T05:41:39;179.80;6502.40
55331;DHT22;58851;42.984;20.336;2024-02-26T05:44:04;179.70;6502.40
55331;DHT22;58851;42.984;20.336;2024-02-26T05:46:31;179.70;6502.40
55331;DHT22;58851;42.984;20.336;2024-02-26T05:48:56;179.70;6502.40
55331;DHT22;58851;42.984;20.336;2024-02-26T05:51:22;179.60;6502.40
55331;DHT22;58851;42.984;20.336;2024-02-26T05:53:48;179.60;6502.40
55331;DHT22;58851;42.984;20.336;2024-02-26T05:56:20;179.60;6502.40
55331;DHT22;58851;42.984;20.336;2024-02-26T05:58:46;179.60;6502.40
55331;DHT22;58851;42.984;20.336;2024-02-26T06:01:12;179.60;6502.40
55331;DHT22;58851;42.984;20.336;2024-02-26T06:03:37;179.50;6502.40
55331;DHT22;58851;42.984;20.336;2024-02-26T06:06:04;179.50;6502.40
55331;DHT22;58851;42.984;20.336;2024-02-26T06:08:29;179.50;6502.40
55331;DHT22;58851;42.984;20.336;2024-02-26T06:10:56;179.50;6502.40
55331;DHT22;58851;42.984;20.336;2024-02-26T06:13:22;179.50;6502.40
55331;DHT22;58851;42.984;20.336;2024-02-26T06:15:48;179.50;6502.40
55331;DHT22;58851;42.984;20.336;2024-02-26T06:18:13;179.50;6502.40
55331;DHT22;58851;42.984;20.336;2024-02-26T06:20:39;179.50;6502.40
55331;DHT22;58851;42.984;20.336;2024-02-26T06:23:05;179.50;6502.40
55331;DHT22;58851;42.984;20.336;2024-02-26T06:25:31;179.40;6502.40
55331;DHT22;58851;42.984;20.336;2024-02-26T06:27:56;179.40;6502.40
55331;DHT22;58851;42.984;20.336;2024-02-26T06:30:22;179.50;6502.40
55331;DHT22;58851;42.984;20.336;2024-02-26T06:32:48;179.50;6502.40
55331;DHT22;58851;42.984;20.336;2024-02-26T06:35:14;179.50;6502.40
55331;DHT22;58851;42.984;20.336;2024-02-26T06:37:39;179.60;6502.40
55331;DHT22;58851;42.984;20.336;2024-02-26T06:40:06;179.60;6502.40
55331;DHT22;58851;42.984;20.336;2024-02-26T06:42:35;179.70;6502.40
55331;DHT22;58851;42.984;20.336;2024-02-26T06:45:01;179.70;6502.40
55331;DHT22;58851;42.984;20.336;2024-02-26T06:47:27;179.80;6502.40
55331;DHT22;58851;42.984;20.336;2024-02-26T06:49:53;179.80;6502.40
55331;DHT22;58851;42.984;20.336;2024-02-26T06:52:19;179.80;6502.40
55331;DHT22;58851;42.984;20.336;2024-02-26T06:54:45;179.80;6502.40
55331;DHT22;58851;42.984;20.336;2024-02-26T06:57:10;180.00;6502.40
55331;DHT22;58851;42.984;20.336;2024-02-26T06:59:36;180.00;6502.40
55331;DHT22;58851;42.984;20.336;2024-02-26T07:02:02;180.10;6502.40
55331;DHT22;58851;42.984;20.336;2024-02-26T07:04:28;204.80;6502.40
55331;DHT22;58851;42.984;20.336;2024-02-26T07:06:54;204.90;6502.40
55331;DHT22;58851;42.984;20.336;2024-02-26T07:09:19;205.10;6502.40
55331;DHT22;58851;42.984;20.336;2024-02-26T07:11:45;205.20;6502.40
55331;DHT22;58851;42.984;20.336;2024-02-26T07:14:12;205.30;6502.40
55331;DHT22;58851;42.984;20.336;2024-02-26T07:16:38;205.40;6502.40
55331;DHT22;58851;42.984;20.336;2024-02-26T07:19:04;205.50;6502.40
55331;DHT22;58851;42.984;20.336;2024-02-26T07:21:30;205.50;6502.40
55331;DHT22;58851;42.984;20.336;2024-02-26T07:23:56;205.50;6502.40
55331;DHT22;58851;42.984;20.336;2024-02-26T07:26:21;205.60;6502.40
55331;DHT22;58851;42.984;20.336;2024-02-26T07:28:49;205.70;6502.40
55331;DHT22;58851;42.984;20.336;2024-02-26T07:31:17;230.50;6502.40
55331;DHT22;58851;42.984;20.336;2024-02-26T07:33:42;230.80;6502.40
55331;DHT22;58851;42.984;20.336;2024-02-26T07:36:08;230.90;6502.40
55331;DHT22;58851;42.984;20.336;2024-02-26T07:38:34;231.00;128.00
55331;DHT22;58851;42.984;20.336;2024-02-26T07:41:02;231.00;128.00
55331;DHT22;58851;42.984;20.336;2024-02-26T07:43:28;231.20;128.00
55331;DHT22;58851;42.984;20.336;2024-02-26T07:45:54;231.30;256.00
55331;DHT22;58851;42.984;20.336;2024-02-26T07:48:19;256.00;128.00
55331;DHT22;58851;42.984;20.336;2024-02-26T07:50:45;256.20;6502.40
55331;DHT22;58851;42.984;20.336;2024-02-26T07:53:11;256.30;179.20
55331;DHT22;58851;42.984;20.336;2024-02-26T07:55:37;256.30;6502.40
55331;DHT22;58851;42.984;20.336;2024-02-26T07:58:03;256.40;6502.40
55331;DHT22;58851;42.984;20.336;2024-02-26T08:00:29;256.60;128.00
55331;DHT22;58851;42.984;20.336;2024-02-26T08:02:55;256.70;128.00
55331;DHT22;58851;42.984;20.336;2024-02-26T08:05:20;256.70;6502.40
55331;DHT22;58851;42.984;20.336;2024-02-26T08:07:46;281.60;128.00
55331;DHT22;58851;42.984;20.336;2024-02-26T08:10:12;281.80;6528.00
55331;DHT22;58851;42.984;20.336;2024-02-26T08:12:38;281.90;6528.00
55331;DHT22;58851;42.984;20.336;2024-02-26T08:15:05;282.00;6528.00
55331;DHT22;58851;42.984;20.336;2024-02-26T08:17:31;282.10;6528.00
55331;DHT22;58851;42.984;20.336;2024-02-26T08:19:59;282.10;6528.00
55331;DHT22;58851;42.984;20.336;2024-02-26T08:22:24;282.30;6528.00
55331;DHT22;58851;42.984;20.336;2024-02-26T08:24:50;282.30;6528.00
55331;DHT22;58851;42.984;20.336;2024-02-26T08:27:16;282.30;6528.00
55331;DHT22;58851;42.984;20.336;2024-02-26T08:29:43;282.50;6528.00
55331;DHT22;58851;42.984;20.336;2024-02-26T08:32:08;282.50;6528.00
55331;DHT22;58851;42.984;20.336;2024-02-26T08:34:34;282.50;6528.00
55331;DHT22;58851;42.984;20.336;2024-02-26T08:37:00;307.20;128.00
55331;DHT22;58851;42.984;20.336;2024-02-26T08:39:26;307.20;128.00
55331;DHT22;58851;42.984;20.336;2024-02-26T08:41:52;307.40;128.00
55331;DHT22;58851;42.984;20.336;2024-02-26T08:44:18;307.40;128.00
55331;DHT22;58851;42.984;20.336;2024-02-26T08:46:43;307.50;128.00
55331;DHT22;58851;42.984;20.336;2024-02-26T08:49:11;282.50;6528.00
55331;DHT22;58851;42.984;20.336;2024-02-26T08:51:42;307.20;128.00
55331;DHT22;58851;42.984;20.336;2024-02-26T08:54:08;307.30;128.00
55331;DHT22;58851;42.984;20.336;2024-02-26T08:56:34;307.40;128.00
55331;DHT22;58851;42.984;20.336;2024-02-26T08:59:00;307.40;128.00
55331;DHT22;58851;42.984;20.336;2024-02-26T09:01:30;307.40;128.00
55331;DHT22;58851;42.984;20.336;2024-02-26T09:03:56;307.40;128.00
55331;DHT22;58851;42.984;20.336;2024-02-26T09:06:22;307.50;128.00
55331;DHT22;58851;42.984;20.336;2024-02-26T09:08:48;307.60;128.00
55331;DHT22;58851;42.984;20.336;2024-02-26T09:11:14;307.60;128.00
55331;DHT22;58851;42.984;20.336;2024-02-26T09:13:39;307.70;128.00
55331;DHT22;58851;42.984;20.336;2024-02-26T09:16:06;307.90;128.00
55331;DHT22;58851;42.984;20.336;2024-02-26T09:18:32;308.00;128.00
55331;DHT22;58851;42.984;20.336;2024-02-26T09:20:58;308.10;128.00
55331;DHT22;58851;42.984;20.336;2024-02-26T09:23:23;308.10;128.00
55331;DHT22;58851;42.984;20.336;2024-02-26T09:25:49;332.90;128.00
55331;DHT22;58851;42.984;20.336;2024-02-26T09:28:15;332.80;128.00
55331;DHT22;58851;42.984;20.336;2024-02-26T09:30:43;332.80;128.00
55331;DHT22;58851;42.984;20.336;2024-02-26T09:33:10;332.80;128.00
55331;DHT22;58851;42.984;20.336;2024-02-26T09:35:37;332.80;128.00
55331;DHT22;58851;42.984;20.336;2024-02-26T09:38:03;332.90;128.00
55331;DHT22;58851;42.984;20.336;2024-02-26T09:40:28;333.10;128.00
55331;DHT22;58851;42.984;20.336;2024-02-26T09:42:59;333.30;128.00
55331;DHT22;58851;42.984;20.336;2024-02-26T09:45:30;333.40;128.00
55331;DHT22;58851;42.984;20.336;2024-02-26T09:47:58;333.50;128.00
55331;DHT22;58851;42.984;20.336;2024-02-26T09:50:24;333.50;128.00
55331;DHT22;58851;42.984;20.336;2024-02-26T09:52:51;358.40;128.00
55331;DHT22;58851;42.984;20.336;2024-02-26T09:55:17;358.60;128.00
55331;DHT22;58851;42.984;20.336;2024-02-26T09:57:46;358.70;128.00
55331;DHT22;58851;42.984;20.336;2024-02-26T10:00:17;358.90;179.20
55331;DHT22;58851;42.984;20.336;2024-02-26T10:02:48;359.00;128.00
55331;DHT22;58851;42.984;20.336;2024-02-26T10:05:20;359.20;128.00
55331;DHT22;58851;42.984;20.336;2024-02-26T10:07:47;359.30;128.00
55331;DHT22;58851;42.984;20.336;2024-02-26T10:10:22;359.30;128.00
55331;DHT22;58851;42.984;20.336;2024-02-26T10:13:02;384.00;128.00
55331;DHT22;58851;42.984;20.336;2024-02-26T10:15:29;384.10;128.00
55331;DHT22;58851;42.984;20.336;2024-02-26T10:17:55;384.20;128.00
55331;DHT22;58851;42.984;20.336;2024-02-26T10:20:21;384.30;128.00
55331;DHT22;58851;42.984;20.336;2024-02-26T10:25:36;384.60;128.00
55331;DHT22;58851;42.984;20.336;2024-02-26T10:28:09;384.70;128.00
55331;DHT22;58851;42.984;20.336;2024-02-26T10:30:36;384.60;128.00
55331;DHT22;58851;42.984;20.336;2024-02-26T10:33:03;384.90;128.00
55331;DHT22;58851;42.984;20.336;2024-02-26T10:35:28;409.70;128.00
55331;DHT22;58851;42.984;20.336;2024-02-26T10:37:57;409.90;128.00
55331;DHT22;58851;42.984;20.336;2024-02-26T10:40:22;409.90;128.00
55331;DHT22;58851;42.984;20.336;2024-02-26T10:42:48;410.00;128.00
55331;DHT22;58851;42.984;20.336;2024-02-26T10:45:14;410.20;128.00
55331;DHT22;58851;42.984;20.336;2024-02-26T10:47:40;410.20;128.00
55331;DHT22;58851;42.984;20.336;2024-02-26T10:50:08;410.40;128.00
55331;DHT22;58851;42.984;20.336;2024-02-26T10:52:35;410.50;128.00
55331;DHT22;58851;42.984;20.336;2024-02-26T10:55:03;410.50;128.00
55331;DHT22;58851;42.984;20.336;2024-02-26T10:57:34;435.20;128.00
55331;DHT22;58851;42.984;20.336;2024-02-26T11:00:03;435.50;128.00
55331;DHT22;58851;42.984;20.336;2024-02-26T11:02:32;435.40;128.00
55331;DHT22;58851;42.984;20.336;2024-02-26T11:05:02;435.60;128.00
55331;DHT22;58851;42.984;20.336;2024-02-26T11:07:30;435.50;128.00
55331;DHT22;58851;42.984;20.336;2024-02-26T11:09:56;435.70;128.00
55331;DHT22;58851;42.984;20.336;2024-02-26T11:12:23;435.70;128.00
55331;DHT22;58851;42.984;20.336;2024-02-26T11:14:50;435.60;128.00
55331;DHT22;58851;42.984;20.336;2024-02-26T11:17:22;435.50;128.00
55331;DHT22;58851;42.984;20.336;2024-02-26T11:19:50;435.30;128.00
55331;DHT22;58851;42.984;20.336;2024-02-26T11:22:16;410.50;128.00
55331;DHT22;58851;42.984;20.336;2024-02-26T11:24:42;410.50;128.00
55331;DHT22;58851;42.984;20.336;2024-02-26T11:27:10;435.20;128.00
55331;DHT22;58851;42.984;20.336;2024-02-26T11:29:50;435.20;128.00
55331;DHT22;58851;42.984;20.336;2024-02-26T11:32:17;435.40;128.00
55331;DHT22;58851;42.984;20.336;2024-02-26T11:34:44;435.40;128.00
55331;DHT22;58851;42.984;20.336;2024-02-26T11:37:11;435.40;128.00
55331;DHT22;58851;42.984;20.336;2024-02-26T11:39:42;435.50;128.00
55331;DHT22;58851;42.984;20.336;2024-02-26T11:42:14;435.40;128.00
55331;DHT22;58851;42.984;20.336;2024-02-26T11:44:40;435.40;128.00
55331;DHT22;58851;42.984;20.336;2024-02-26T11:47:17;410.50;128.00
55331;DHT22;58851;42.984;20.336;2024-02-26T11:49:43;435.50;128.00
55331;DHT22;58851;42.984;20.336;2024-02-26T11:52:10;435.70;128.00
55331;DHT22;58851;42.984;20.336;2024-02-26T11:54:50;435.90;128.00
55331;DHT22;58851;42.984;20.336;2024-02-26T11:59:52;460.80;128.00
55331;DHT22;58851;42.984;20.336;2024-02-26T12:02:40;461.00;128.00
55331;DHT22;58851;42.984;20.336;2024-02-26T12:05:22;461.00;128.00
55331;DHT22;58851;42.984;20.336;2024-02-26T12:07:59;461.10;128.00
55331;DHT22;58851;42.984;20.336;2024-02-26T12:10:31;461.20;128.00
55331;DHT22;58851;42.984;20.336;2024-02-26T12:13:11;461.40;128.00
55331;DHT22;58851;42.984;20.336;2024-02-26T12:15:41;461.30;128.00
55331;DHT22;58851;42.984;20.336;2024-02-26T12:18:09;461.50;128.00
55331;DHT22;58851;42.984;20.336;2024-02-26T12:20:37;461.70;128.00
55331;DHT22;58851;42.984;20.336;2024-02-26T12:23:04;486.40;128.00
55331;DHT22;58851;42.984;20.336;2024-02-26T12:25:30;486.40;128.00
55331;DHT22;58851;42.984;20.336;2024-02-26T12:27:57;461.40;128.00
55331;DHT22;58851;42.984;20.336;2024-02-26T12:30:23;461.50;128.00
55331;DHT22;58851;42.984;20.336;2024-02-26T12:32:52;486.40;128.00
55331;DHT22;58851;42.984;20.336;2024-02-26T12:35:23;486.50;128.00
55331;DHT22;58851;42.984;20.336;2024-02-26T12:37:49;461.70;128.00
55331;DHT22;58851;42.984;20.336;2024-02-26T12:40:17;461.50;128.00
55331;DHT22;58851;42.984;20.336;2024-02-26T12:42:43;461.60;128.00
55331;DHT22;58851;42.984;20.336;2024-02-26T12:45:11;486.60;128.00
55331;DHT22;58851;42.984;20.336;2024-02-26T12:47:45;486.40;128.00
55331;DHT22;58851;42.984;20.336;2024-02-26T12:50:17;461.70;128.00
55331;DHT22;58851;42.984;20.336;2024-02-26T12:52:47;461.70;128.00
55331;DHT22;58851;42.984;20.336;2024-02-26T12:55:20;461.60;128.00
55331;DHT22;58851;42.984;20.336;2024-02-26T12:57:46;461.60;128.00
55331;DHT22;58851;42.984;20.336;2024-02-26T13:00:17;461.50;128.00
55331;DHT22;58851;42.984;20.336;2024-02-26T13:02:45;461.20;128.00
55331;DHT22;58851;42.984;20.336;2024-02-26T13:05:13;461.20;128.00
55331;DHT22;58851;42.984;20.336;2024-02-26T13:07:46;461.20;128.00
55331;DHT22;58851;42.984;20.336;2024-02-26T13:10:17;461.10;128.00
55331;DHT22;58851;42.984;20.336;2024-02-26T13:12:50;461.10;128.00
55331;DHT22;58851;42.984;20.336;2024-02-26T13:15:20;461.30;128.00
55331;DHT22;58851;42.984;20.336;2024-02-26T13:17:47;461.30;128.00
55331;DHT22;58851;42.984;20.336;2024-02-26T13:20:13;461.30;128.00
55331;DHT22;58851;42.984;20.336;2024-02-26T13:22:50;461.30;128.00
55331;DHT22;58851;42.984;20.336;2024-02-26T13:25:20;461.40;128.00
55331;DHT22;58851;42.984;20.336;2024-02-26T13:27:46;461.40;128.00
55331;DHT22;58851;42.984;20.336;2024-02-26T13:30:12;486.70;128.00
55331;DHT22;58851;42.984;20.336;2024-02-26T13:32:44;487.10;128.00
55331;DHT22;58851;42.984;20.336;2024-02-26T13:35:19;512.30;128.00
55331;DHT22;58851;42.984;20.336;2024-02-26T13:37:45;512.60;460.80
55331;DHT22;58851;42.984;20.336;2024-02-26T13:40:11;512.70;358.40
55331;DHT22;58851;42.984;20.336;2024-02-26T13:42:38;512.90;486.40
55331;DHT22;58851;42.984;20.336;2024-02-26T13:45:05;537.90;128.00
55331;DHT22;58851;42.984;20.336;2024-02-26T13:47:34;538.40;128.00
55331;DHT22;58851;42.984;20.336;2024-02-26T13:50:02;538.40;128.00
55331;DHT22;58851;42.984;20.336;2024-02-26T13:52:28;538.40;128.00
55331;DHT22;58851;42.984;20.336;2024-02-26T13:54:54;563.20;128.00
55331;DHT22;58851;42.984;20.336;2024-02-26T13:57:20;563.30;128.00
55331;DHT22;58851;42.984;20.336;2024-02-26T13:59:46;538.40;128.00
55331;DHT22;58851;42.984;20.336;2024-02-26T14:02:11;538.20;128.00
55331;DHT22;58851;42.984;20.336;2024-02-26T14:04:37;537.90;128.00
55331;DHT22;58851;42.984;20.336;2024-02-26T14:07:04;537.80;128.00
55331;DHT22;58851;42.984;20.336;2024-02-26T14:09:30;512.80;128.00
55331;DHT22;58851;42.984;20.336;2024-02-26T14:11:58;512.50;128.00
55331;DHT22;58851;42.984;20.336;2024-02-26T14:14:24;512.80;128.00
55331;DHT22;58851;42.984;20.336;2024-02-26T14:16:51;537.80;128.00
55331;DHT22;58851;42.984;20.336;2024-02-26T14:19:18;538.10;128.00
55331;DHT22;58851;42.984;20.336;2024-02-26T14:21:44;538.30;128.00
55331;DHT22;58851;42.984;20.336;2024-02-26T14:24:10;538.40;128.00
55331;DHT22;58851;42.984;20.336;2024-02-26T14:26:36;563.30;128.00
55331;DHT22;58851;42.984;20.336;2024-02-26T14:29:03;563.50;128.00
55331;DHT22;58851;42.984;20.336;2024-02-26T14:31:29;563.60;128.00
55331;DHT22;58851;42.984;20.336;2024-02-26T14:33:54;563.40;128.00
55331;DHT22;58851;42.984;20.336;2024-02-26T14:36:21;563.60;128.00
55331;DHT22;58851;42.984;20.336;2024-02-26T14:38:47;538.00;128.00
55331;DHT22;58851;42.984;20.336;2024-02-26T14:41:13;538.00;128.00
55331;DHT22;58851;42.984;20.336;2024-02-26T14:43:39;537.90;128.00